Terminal Aerodrome Forecast
Issued by NWS Twin Cities, MN

Home | Current Version | Previous Version | Graphics & Text | Print | Product List | Glossary On
Versions: 1 2 3 4 5 6 7 8 9 10 11 12
000
FTUS43 KMPX 012332
TAFEAU
TAF
KEAU 012332Z 0200/0224 19009KT P6SM SCT045 OVC070
     FM020400 19005KT P6SM SCT060
     FM021500 21009KT P6SM SKC=

USA.gov is the U.S. government's official web portal to all federal, state and local government web resources and services.